Time,TemperatureF,DewpointF,PressureIn,WindDirection,WindDirectionDegrees,WindSpeedMPH,WindSpeedGustMPH,Humidity,HourlyPrecipIn,Conditions,Clouds,dailyrainin,SoftwareType,DateUTC
2013-06-18 00:02:00,49.0,49.0,-100.00,SE,125,12.0,14.0,99,-99.99,,,-99.99,,2013-06-18 06:02:00,
2013-06-18 00:11:00,49.0,49.0,-100.00,SE,130,14.0,16.0,99,-99.99,,,-99.99,,2013-06-18 06:11:00,
2013-06-18 00:23:00,49.0,49.0,-100.00,SE,125,12.0,17.0,99,-99.99,,,-99.99,,2013-06-18 06:23:00,
2013-06-18 00:32:00,49.0,49.0,-100.00,ESE,120,12.0,16.0,99,-99.99,,,-99.99,,2013-06-18 06:32:00,
2013-06-18 00:43:00,49.0,49.0,-100.00,East,90,12.0,17.0,99,-99.99,,,-99.99,,2013-06-18 06:43:00,
2013-06-18 00:52:00,49.0,49.0,-100.00,ESE,110,15.0,20.0,99,-99.99,,,-99.99,,2013-06-18 06:52:00,
2013-06-18 01:02:00,49.0,49.0,-100.00,ESE,120,12.0,19.0,99,-99.99,,,-99.99,,2013-06-18 07:02:00,
2013-06-18 01:12:00,48.0,48.0,-100.00,ESE,120,11.0,16.0,99,-99.99,,,-99.99,,2013-06-18 07:12:00,
2013-06-18 01:22:00,48.0,48.0,-100.00,SE,135,11.0,13.0,99,-99.99,,,-99.99,,2013-06-18 07:22:00,
2013-06-18 01:33:00,49.0,49.0,-100.00,SE,140,10.0,13.0,99,-99.99,,,-99.99,,2013-06-18 07:33:00,
2013-06-18 01:43:00,49.0,49.0,-100.00,SE,140,11.0,14.0,99,-99.99,,,-99.99,,2013-06-18 07:43:00,
2013-06-18 01:52:00,49.0,49.0,-100.00,SE,135,13.0,16.0,99,-99.99,,,-99.99,,2013-06-18 07:52:00,
2013-06-18 02:01:00,49.0,49.0,-100.00,SE,140,11.0,16.0,99,-99.99,,,-99.99,,2013-06-18 08:01:00,
2013-06-18 02:11:00,49.0,49.0,-100.00,SSE,150,10.0,14.0,99,-99.99,,,-99.99,,2013-06-18 08:11:00,
2013-06-18 02:23:00,49.0,49.0,-100.00,SE,145,11.0,16.0,99,-99.99,,,-99.99,,2013-06-18 08:23:00,
2013-06-18 02:32:00,49.0,49.0,-100.00,SE,140,12.0,17.0,99,-99.99,,,-99.99,,2013-06-18 08:32:00,
2013-06-18 02:43:00,49.0,49.0,-100.00,SE,145,12.0,15.0,99,-99.99,,,-99.99,,2013-06-18 08:43:00,
2013-06-18 02:52:00,49.0,49.0,-100.00,SE,145,12.0,19.0,99,-99.99,,,-99.99,,2013-06-18 08:52:00,
2013-06-18 03:01:00,49.0,49.0,-100.00,SE,140,12.0,17.0,99,-99.99,,,-99.99,,2013-06-18 09:01:00,
2013-06-18 03:12:00,49.0,49.0,-100.00,SE,140,13.0,18.0,99,-99.99,,,-99.99,,2013-06-18 09:12:00,
2013-06-18 03:22:00,49.0,49.0,-100.00,SE,140,13.0,19.0,99,-99.99,,,-99.99,,2013-06-18 09:22:00,
2013-06-18 03:34:00,49.0,49.0,-100.00,SE,130,15.0,17.0,99,-99.99,,,-99.99,,2013-06-18 09:34:00,
2013-06-18 03:43:00,49.0,49.0,-100.00,SE,145,11.0,18.0,99,-99.99,,,-99.99,,2013-06-18 09:43:00,
2013-06-18 03:53:00,49.0,49.0,-100.00,SSE,155,10.0,16.0,99,-99.99,,,-99.99,,2013-06-18 09:53:00,
2013-06-18 04:02:00,48.0,48.0,-100.00,SSE,160,11.0,16.0,99,-99.99,,,-99.99,,2013-06-18 10:02:00,
2013-06-18 04:22:00,48.0,48.0,-100.00,SE,130,14.0,17.0,99,-99.99,,,-99.99,,2013-06-18 10:22:00,
2013-06-18 04:33:00,48.0,48.0,-100.00,SE,135,14.0,19.0,99,-99.99,,,-99.99,,2013-06-18 10:33:00,
2013-06-18 04:43:00,48.0,48.0,-100.00,SE,130,14.0,19.0,99,-99.99,,,-99.99,,2013-06-18 10:43:00,
2013-06-18 04:53:00,48.0,48.0,-100.00,SE,130,15.0,19.0,99,-99.99,,,-99.99,,2013-06-18 10:53:00,
2013-06-18 05:02:00,48.0,48.0,-100.00,SE,130,16.0,18.0,99,-99.99,,,-99.99,,2013-06-18 11:02:00,
2013-06-18 05:11:00,48.0,48.0,-100.00,SE,125,13.0,18.0,99,-99.99,,,-99.99,,2013-06-18 11:11:00,
2013-06-18 05:22:00,48.0,48.0,-100.00,SE,125,14.0,17.0,99,-99.99,,,-99.99,,2013-06-18 11:22:00,
2013-06-18 05:32:00,48.0,48.0,-100.00,SE,130,14.0,20.0,99,-99.99,,,-99.99,,2013-06-18 11:32:00,
2013-06-18 05:43:00,48.0,48.0,-100.00,SE,135,14.0,20.0,99,-99.99,,,-99.99,,2013-06-18 11:43:00,
2013-06-18 05:52:00,48.0,48.0,-100.00,SSE,150,13.0,17.0,99,-99.99,,,-99.99,,2013-06-18 11:52:00,
2013-06-18 06:01:00,48.0,47.0,-100.00,SE,140,14.0,19.0,99,-99.99,,,-99.99,,2013-06-18 12:01:00,
2013-06-18 06:11:00,48.0,48.0,-100.00,SE,135,13.0,17.0,99,-99.99,,,-99.99,,2013-06-18 12:11:00,
2013-06-18 06:22:00,47.0,47.0,-100.00,SSE,155,12.0,19.0,99,-99.99,,,-99.99,,2013-06-18 12:22:00,
2013-06-18 06:33:00,47.0,47.0,-100.00,SSE,160,12.0,16.0,99,-99.99,,,-99.99,,2013-06-18 12:33:00,
2013-06-18 06:43:00,47.0,47.0,-100.00,SSE,155,10.0,16.0,99,-99.99,,,-99.99,,2013-06-18 12:43:00,
2013-06-18 06:52:00,47.0,47.0,-100.00,SSE,160,12.0,18.0,99,-99.99,,,-99.99,,2013-06-18 12:52:00,
2013-06-18 07:02:00,47.0,47.0,-100.00,SE,140,14.0,17.0,99,-99.99,,,-99.99,,2013-06-18 13:02:00,
2013-06-18 07:12:00,47.0,47.0,-100.00,SSE,165,13.0,18.0,99,-99.99,,,-99.99,,2013-06-18 13:12:00,
2013-06-18 07:22:00,48.0,48.0,-100.00,SSE,160,12.0,14.0,99,-99.99,,,-99.99,,2013-06-18 13:22:00,
2013-06-18 07:33:00,48.0,48.0,-100.00,SE,135,12.0,16.0,99,-99.99,,,-99.99,,2013-06-18 13:33:00,
2013-06-18 07:43:00,48.0,48.0,-100.00,SSE,165,11.0,16.0,99,-99.99,,,-99.99,,2013-06-18 13:43:00,
2013-06-18 07:52:00,49.0,49.0,-100.00,SSE,160,9.0,13.0,98,-99.99,,,-99.99,,2013-06-18 13:52:00,
2013-06-18 08:02:00,51.0,49.0,-100.00,SSE,160,8.0,11.0,93,-99.99,,,-99.99,,2013-06-18 14:02:00,
2013-06-18 08:11:00,52.0,49.0,-100.00,SSE,165,10.0,12.0,88,-99.99,,,-99.99,,2013-06-18 14:11:00,
2013-06-18 08:22:00,53.0,48.0,-100.00,SSE,160,9.0,12.0,83,-99.99,,,-99.99,,2013-06-18 14:22:00,
2013-06-18 08:33:00,55.0,48.0,-100.00,SSE,160,6.0,9.0,78,-99.99,,,-99.99,,2013-06-18 14:33:00,
2013-06-18 08:53:00,58.0,46.0,-100.00,SSE,160,7.0,9.0,66,-99.99,,,-99.99,,2013-06-18 14:53:00,
2013-06-18 09:22:00,61.0,44.0,-100.00,SSE,160,9.0,14.0,52,-99.99,,,-99.99,,2013-06-18 15:22:00,
2013-06-18 09:43:00,62.0,43.0,-100.00,SE,135,12.0,17.0,48,-99.99,,,-99.99,,2013-06-18 15:43:00,
2013-06-18 09:53:00,63.0,42.0,-100.00,SE,145,12.0,18.0,47,-99.99,,,-99.99,,2013-06-18 15:53:00,
2013-06-18 10:01:00,64.0,43.0,-100.00,SE,145,12.0,16.0,46,-99.99,,,-99.99,,2013-06-18 16:01:00,
2013-06-18 10:11:00,63.0,43.0,-100.00,SE,135,13.0,16.0,47,-99.99,,,-99.99,,2013-06-18 16:11:00,
2013-06-18 10:22:00,64.0,43.0,-100.00,SE,140,11.0,17.0,46,-99.99,,,-99.99,,2013-06-18 16:22:00,
2013-06-18 10:33:00,65.0,43.0,-100.00,SE,145,12.0,17.0,45,-99.99,,,-99.99,,2013-06-18 16:33:00,
2013-06-18 10:43:00,65.0,43.0,-100.00,ESE,115,14.0,17.0,45,-99.99,,,-99.99,,2013-06-18 16:43:00,
2013-06-18 10:53:00,65.0,42.0,-100.00,SE,140,14.0,19.0,43,-99.99,,,-99.99,,2013-06-18 16:53:00,
2013-06-18 11:02:00,65.0,42.0,-100.00,SE,125,15.0,19.0,42,-99.99,,,-99.99,,2013-06-18 17:02:00,
2013-06-18 11:11:00,66.0,42.0,-100.00,SSE,155,12.0,17.0,42,-99.99,,,-99.99,,2013-06-18 17:11:00,
2013-06-18 11:22:00,67.0,43.0,-100.00,SSE,160,12.0,17.0,42,-99.99,,,-99.99,,2013-06-18 17:22:00,
2013-06-18 11:33:00,69.0,43.0,-100.00,SSE,160,11.0,17.0,39,-99.99,,,-99.99,,2013-06-18 17:33:00,
2013-06-18 11:43:00,69.0,41.0,-100.00,SSE,165,17.0,24.0,36,-99.99,,,-99.99,,2013-06-18 17:43:00,
2013-06-18 11:53:00,68.0,41.0,-100.00,SSE,155,13.0,22.0,37,-99.99,,,-99.99,,2013-06-18 17:53:00,
2013-06-18 12:02:00,68.0,42.0,-100.00,SSE,160,14.0,21.0,37,-99.99,,,-99.99,,2013-06-18 18:02:00,
2013-06-18 12:11:00,66.0,41.0,-100.00,SSE,160,13.0,21.0,39,-99.99,,,-99.99,,2013-06-18 18:11:00,
2013-06-18 12:22:00,66.0,41.0,-100.00,SE,145,13.0,19.0,41,-99.99,,,-99.99,,2013-06-18 18:22:00,
2013-06-18 12:33:00,66.0,42.0,-100.00,SE,135,13.0,19.0,42,-99.99,,,-99.99,,2013-06-18 18:33:00,
2013-06-18 12:42:00,66.0,42.0,-100.00,SSE,165,11.0,19.0,41,-99.99,,,-99.99,,2013-06-18 18:42:00,
2013-06-18 12:53:00,65.0,42.0,-100.00,SSE,160,11.0,20.0,43,-99.99,,,-99.99,,2013-06-18 18:53:00,
2013-06-18 13:01:00,66.0,43.0,-100.00,SE,125,14.0,20.0,43,-99.99,,,-99.99,,2013-06-18 19:01:00,
2013-06-18 13:11:00,66.0,43.0,-100.00,ESE,120,14.0,20.0,43,-99.99,,,-99.99,,2013-06-18 19:11:00,
2013-06-18 13:22:00,70.0,41.0,-100.00,SSE,165,14.0,22.0,34,-99.99,,,-99.99,,2013-06-18 19:22:00,
2013-06-18 13:33:00,71.0,41.0,-100.00,SSE,160,16.0,22.0,33,-99.99,,,-99.99,,2013-06-18 19:33:00,
2013-06-18 13:43:00,69.0,42.0,-100.00,SSE,160,17.0,23.0,36,-99.99,,,-99.99,,2013-06-18 19:43:00,
2013-06-18 13:52:00,67.0,38.0,-100.00,SSE,165,16.0,27.0,34,-99.99,,,-99.99,,2013-06-18 19:52:00,
2013-06-18 14:01:00,67.0,39.0,-100.00,SE,140,14.0,22.0,35,-99.99,,,-99.99,,2013-06-18 20:01:00,
2013-06-18 14:11:00,66.0,40.0,-100.00,SE,135,18.0,23.0,37,-99.99,,,-99.99,,2013-06-18 20:11:00,
2013-06-18 14:23:00,68.0,41.0,-100.00,SE,145,15.0,21.0,36,-99.99,,,-99.99,,2013-06-18 20:23:00,
2013-06-18 14:33:00,69.0,41.0,-100.00,SSE,155,11.0,21.0,36,-99.99,,,-99.99,,2013-06-18 20:33:00,
2013-06-18 14:43:00,69.0,39.0,-100.00,SE,130,12.0,19.0,33,-99.99,,,-99.99,,2013-06-18 20:43:00,
2013-06-18 14:52:00,72.0,40.0,-100.00,SSE,165,11.0,19.0,31,-99.99,,,-99.99,,2013-06-18 20:52:00,
2013-06-18 15:01:00,73.0,38.0,-100.00,SSE,165,13.0,20.0,28,-99.99,,,-99.99,,2013-06-18 21:01:00,
2013-06-18 15:11:00,71.0,37.0,-100.00,SSE,160,15.0,23.0,29,-99.99,,,-99.99,,2013-06-18 21:11:00,
2013-06-18 15:22:00,66.0,38.0,-100.00,SE,140,15.0,24.0,34,-99.99,,,-99.99,,2013-06-18 21:22:00,
2013-06-18 15:33:00,66.0,39.0,-100.00,SE,140,14.0,20.0,37,-99.99,,,-99.99,,2013-06-18 21:33:00,
2013-06-18 15:43:00,66.0,39.0,-100.00,SE,135,11.0,20.0,38,-99.99,,,-99.99,,2013-06-18 21:43:00,
2013-06-18 15:52:00,68.0,39.0,-100.00,ESE,115,19.0,25.0,34,-99.99,,,-99.99,,2013-06-18 21:52:00,
2013-06-18 16:01:00,67.0,38.0,-100.00,ESE,110,12.0,20.0,33,-99.99,,,-99.99,,2013-06-18 22:01:00,
2013-06-18 16:11:00,69.0,37.0,-100.00,SE,135,12.0,20.0,30,-99.99,,,-99.99,,2013-06-18 22:11:00,
2013-06-18 16:22:00,69.0,40.0,-100.00,SE,130,18.0,24.0,34,-99.99,,,-99.99,,2013-06-18 22:22:00,
2013-06-18 16:34:00,68.0,40.0,-100.00,SE,135,18.0,24.0,35,-99.99,,,-99.99,,2013-06-18 22:34:00,
2013-06-18 16:42:00,69.0,40.0,-100.00,SE,145,14.0,24.0,34,-99.99,,,-99.99,,2013-06-18 22:42:00,
2013-06-18 16:53:00,70.0,37.0,-100.00,ESE,120,13.0,21.0,29,-99.99,,,-99.99,,2013-06-18 22:53:00,
2013-06-18 17:01:00,70.0,37.0,-100.00,ESE,120,11.0,20.0,29,-99.99,,,-99.99,,2013-06-18 23:01:00,
2013-06-18 17:11:00,69.0,34.0,-100.00,SSE,155,11.0,17.0,28,-99.99,,,-99.99,,2013-06-18 23:11:00,
2013-06-18 17:23:00,70.0,35.0,-100.00,SE,135,13.0,17.0,27,-99.99,,,-99.99,,2013-06-18 23:23:00,
2013-06-18 17:36:00,70.0,34.0,-100.00,SE,140,10.0,17.0,26,-99.99,,,-99.99,,2013-06-18 23:36:00,
2013-06-18 17:45:00,69.0,32.0,-100.00,ESE,110,14.0,21.0,24,-99.99,,,-99.99,,2013-06-18 23:45:00,
2013-06-18 17:53:00,68.0,29.0,-100.00,ESE,120,11.0,20.0,23,-99.99,,,-99.99,,2013-06-18 23:53:00,
2013-06-18 18:01:00,68.0,31.0,-100.00,ESE,105,12.0,21.0,24,-99.99,,,-99.99,,2013-06-19 00:01:00,
2013-06-18 18:11:00,68.0,31.0,-100.00,ESE,110,15.0,19.0,25,-99.99,,,-99.99,,2013-06-19 00:11:00,
2013-06-18 18:22:00,67.0,33.0,-100.00,ESE,110,16.0,22.0,28,-99.99,,,-99.99,,2013-06-19 00:22:00,
2013-06-18 18:33:00,66.0,34.0,-100.00,East,90,13.0,18.0,29,-99.99,,,-99.99,,2013-06-19 00:33:00,
2013-06-18 18:43:00,68.0,35.0,-100.00,East,95,11.0,16.0,29,-99.99,,,-99.99,,2013-06-19 00:43:00,
2013-06-18 18:53:00,68.0,35.0,-100.00,East,90,12.0,19.0,29,-99.99,,,-99.99,,2013-06-19 00:53:00,
2013-06-18 19:01:00,69.0,36.0,-100.00,East,95,14.0,19.0,29,-99.99,,,-99.99,,2013-06-19 01:01:00,
2013-06-18 19:11:00,68.0,33.0,-100.00,ESE,110,16.0,20.0,26,-99.99,,,-99.99,,2013-06-19 01:11:00,
2013-06-18 19:22:00,67.0,31.0,-100.00,SE,130,16.0,21.0,25,-99.99,,,-99.99,,2013-06-19 01:22:00,
2013-06-18 19:32:00,65.0,35.0,-100.00,SE,125,22.0,30.0,31,-99.99,,,-99.99,,2013-06-19 01:32:00,
2013-06-18 19:42:00,65.0,36.0,-100.00,SE,130,21.0,30.0,34,-99.99,,,-99.99,,2013-06-19 01:42:00,
2013-06-18 19:53:00,63.0,37.0,-100.00,ESE,115,20.0,24.0,37,-99.99,,,-99.99,,2013-06-19 01:53:00,
2013-06-18 20:01:00,62.0,36.0,-100.00,SE,125,26.0,32.0,37,-99.99,,,-99.99,,2013-06-19 02:01:00,
2013-06-18 20:11:00,61.0,35.0,-100.00,ESE,105,22.0,29.0,37,-99.99,,,-99.99,,2013-06-19 02:11:00,
2013-06-18 20:21:00,60.0,35.0,-100.00,ESE,110,18.0,27.0,38,-99.99,,,-99.99,,2013-06-19 02:21:00,
2013-06-18 20:32:00,60.0,35.0,-100.00,SE,125,23.0,30.0,38,-99.99,,,-99.99,,2013-06-19 02:32:00,
2013-06-18 20:42:00,60.0,35.0,-100.00,SE,125,24.0,31.0,39,-99.99,,,-99.99,,2013-06-19 02:42:00,
2013-06-18 20:51:00,59.0,35.0,-100.00,SE,135,23.0,34.0,40,-99.99,,,-99.99,,2013-06-19 02:51:00,
2013-06-18 21:01:00,58.0,35.0,-100.00,ESE,120,21.0,28.0,43,-99.99,,,-99.99,,2013-06-19 03:01:00,
2013-06-18 21:11:00,56.0,36.0,-100.00,ESE,115,17.0,24.0,46,-99.99,,,-99.99,,2013-06-19 03:11:00,
2013-06-18 21:21:00,56.0,37.0,-100.00,ESE,115,16.0,22.0,49,-99.99,,,-99.99,,2013-06-19 03:21:00,
2013-06-18 21:33:00,55.0,38.0,-100.00,ESE,115,12.0,21.0,52,-99.99,,,-99.99,,2013-06-19 03:33:00,
2013-06-18 21:42:00,55.0,39.0,-100.00,ESE,115,12.0,15.0,54,-99.99,,,-99.99,,2013-06-19 03:42:00,
2013-06-18 21:52:00,55.0,39.0,-100.00,ESE,120,14.0,17.0,54,-99.99,,,-99.99,,2013-06-19 03:52:00,
2013-06-18 22:01:00,55.0,39.0,-100.00,ESE,115,13.0,17.0,54,-99.99,,,-99.99,,2013-06-19 04:01:00,
2013-06-18 22:11:00,55.0,39.0,-100.00,ESE,105,14.0,17.0,54,-99.99,,,-99.99,,2013-06-19 04:11:00,
2013-06-18 22:32:00,55.0,40.0,-100.00,East,90,16.0,21.0,57,-99.99,,,-99.99,,2013-06-19 04:32:00,
2013-06-18 22:42:00,53.0,41.0,-100.00,East,85,14.0,21.0,62,-99.99,,,-99.99,,2013-06-19 04:42:00,
2013-06-18 22:53:00,53.0,42.0,-100.00,East,100,17.0,27.0,64,-99.99,,,-99.99,,2013-06-19 04:53:00,
2013-06-18 23:01:00,53.0,42.0,-100.00,East,90,15.0,21.0,66,-99.99,,,-99.99,,2013-06-19 05:01:00,
2013-06-18 23:11:00,51.0,43.0,-100.00,East,95,13.0,20.0,73,-99.99,,,-99.99,,2013-06-19 05:11:00,
2013-06-18 23:22:00,51.0,44.0,-100.00,East,85,14.0,19.0,77,-99.99,,,-99.99,,2013-06-19 05:22:00,
2013-06-18 23:32:00,51.0,44.0,-100.00,East,95,12.0,19.0,77,-99.99,,,-99.99,,2013-06-19 05:32:00,
2013-06-18 23:42:00,51.0,44.0,-100.00,ESE,105,11.0,15.0,77,-99.99,,,-99.99,,2013-06-19 05:42:00,
2013-06-18 23:52:00,50.0,44.0,-100.00,ESE,120,12.0,16.0,78,-99.99,,,-99.99,,2013-06-19 05:52:00,